Time;durP1;ratioP1;P1;durP2;ratioP2;P2;SDS_P1;SDS_P2;PMS_P1;PMS_P2;Temp;Humidity;BMP_temperature;BMP_pressure;BME280_temperature;BME280_humidity;BME280_pressure;Samples;Min_cycle;Max_cycle;Signal;HPM_P1;HPM_P2
2022/08/02 00:00:13;;;;;;;;;;;;;;;22.45;53.91;101594.13;1016852;29;747;-78
2022/08/02 00:01:04;;;;;;;;;;;;;;;22.46;53.72;101586.84;1016877;29;642;-75
2022/08/02 00:01:55;;;;;;;;;;;;;;;22.45;53.57;101579.72;1018243;29;1596;-75
2022/08/02 00:02:45;;;;;;;;;;;;;;;22.42;54.06;101575.44;1020278;29;653;-78
2022/08/02 00:03:36;;;;;;;;;;;;;;;22.42;53.84;101575.44;1020620;29;596;-78
2022/08/02 00:04:26;;;;;;;;;;;;;;;22.42;54.07;101580.88;1020703;29;670;-78
2022/08/02 00:05:17;;;;;;;;;;;;;;;22.41;53.84;101581.03;1020782;29;651;-78
2022/08/02 00:06:07;;;;;;;;;;;;;;;22.41;53.57;101571.00;1020739;29;619;-79
2022/08/02 00:06:58;;;;;;;;;;;;;;;22.40;53.70;101577.47;1020810;29;665;-78
2022/08/02 00:07:48;;;;;;;;;;;;;;;22.40;53.56;101582.03;1020597;29;708;-78
2022/08/02 00:08:38;;;;;;;;;;;;;;;22.39;53.78;101581.19;1020761;29;656;-79
2022/08/02 00:09:29;;;;;;;;;;;;;;;22.39;53.97;101574.94;1020488;29;1902;-78
2022/08/02 00:10:19;;;;;;;;;;;;;;;22.40;53.53;101573.88;1020223;29;1611;-79
2022/08/02 00:11:10;;;;;;;;;;;;;;;22.39;53.57;101578.47;1020573;29;590;-79
2022/08/02 00:12:00;;;;;;;;;;;;;;;22.39;53.57;101572.22;1020588;29;615;-78
2022/08/02 00:12:51;;;;;;;;;;;;;;;22.39;53.53;101569.50;1020778;29;674;-78
2022/08/02 00:13:41;;;;;;;;;;;;;;;22.37;53.61;101572.38;1020652;29;638;-79
2022/08/02 00:14:31;;;;;;;;;;;;;;;22.36;53.78;101570.66;1020751;29;682;-79
2022/08/02 00:15:22;;;;;;;;;;;;;;;22.37;53.87;101572.38;1020631;29;642;-79
2022/08/02 00:16:12;;;;;;;;;;;;;;;22.37;53.80;101572.38;1020585;29;670;-79
2022/08/02 00:17:03;;;;;;;;;;;;;;;22.36;53.58;101565.22;1020699;29;721;-79
2022/08/02 00:17:53;;;;;;;;;;;;;;;22.35;53.81;101563.53;1020623;29;647;-79
2022/08/02 00:18:44;;;;;;;;;;;;;;;22.35;53.37;101562.69;1020753;29;757;-79
2022/08/02 00:19:34;;;;;;;;;;;;;;;22.36;53.59;101561.66;1020653;29;682;-79
2022/08/02 00:20:24;;;;;;;;;;;;;;;22.34;53.37;101559.09;1020642;29;678;-79
2022/08/02 00:21:15;;;;;;;;;;;;;;;22.34;53.62;101559.09;1020570;29;619;-79
2022/08/02 00:22:05;;;;;;;;;;;;;;;22.32;53.57;101557.56;1020068;29;634;-79
2022/08/02 00:22:56;;;;;;;;;;;;;;;22.32;53.32;101549.41;1020691;29;722;-78
2022/08/02 00:23:46;;;;;;;;;;;;;;;22.32;53.25;101554.84;1020577;29;682;-79
2022/08/02 00:24:37;;;;;;;;;;;;;;;22.31;53.46;101553.13;1017245;29;671;-79
2022/08/02 00:25:27;;;;;;;;;;;;;;;22.29;53.71;101549.72;1016707;29;675;-78
2022/08/02 00:26:18;;;;;;;;;;;;;;;22.29;53.32;101547.84;1017417;29;668;-79
2022/08/02 00:27:08;;;;;;;;;;;;;;;22.32;53.44;101547.53;1017523;29;671;-79
2022/08/02 00:27:58;;;;;;;;;;;;;;;22.27;53.30;101544.44;1016790;29;802;-78
2022/08/02 00:28:49;;;;;;;;;;;;;;;22.27;53.46;101547.16;1016593;29;702;-79
2022/08/02 00:29:39;;;;;;;;;;;;;;;22.27;53.17;101544.44;1016714;29;1911;-78
2022/08/02 00:30:30;;;;;;;;;;;;;;;22.28;53.57;101551.59;1016728;29;617;-78
2022/08/02 00:31:20;;;;;;;;;;;;;;;22.29;53.18;101549.72;1016674;29;645;-78
2022/08/02 00:32:11;;;;;;;;;;;;;;;22.28;53.29;101548.00;1016318;29;671;-78
2022/08/02 00:33:01;;;;;;;;;;;;;;;22.29;53.29;101547.00;1016595;29;616;-79
2022/08/02 00:33:51;;;;;;;;;;;;;;;22.29;53.27;101547.84;1016773;29;722;-78
2022/08/02 00:34:42;;;;;;;;;;;;;;;22.30;53.19;101546.00;1017995;29;694;-78
2022/08/02 00:35:32;;;;;;;;;;;;;;;22.28;53.19;101542.59;1017462;29;667;-78
2022/08/02 00:36:23;;;;;;;;;;;;;;;22.28;53.11;101542.59;1016910;29;631;-79
2022/08/02 00:37:13;;;;;;;;;;;;;;;22.28;53.18;101548.00;1016605;29;719;-78
2022/08/02 00:38:04;;;;;;;;;;;;;;;22.28;53.02;101550.72;1016695;29;726;-78
2022/08/02 00:38:54;;;;;;;;;;;;;;;22.27;53.41;101543.59;1016608;29;600;-78
2022/08/02 00:39:44;;;;;;;;;;;;;;;22.23;53.63;101545.75;1016708;29;655;-78
2022/08/02 00:40:35;;;;;;;;;;;;;;;22.23;53.23;101551.19;1016650;29;683;-78
2022/08/02 00:41:25;;;;;;;;;;;;;;;22.24;53.22;101543.91;1016725;29;667;-78
2022/08/02 00:42:16;;;;;;;;;;;;;;;22.22;53.26;101544.06;1016665;29;751;-78
2022/08/02 00:43:06;;;;;;;;;;;;;;;22.21;53.61;101539.66;1016536;29;564;-78
2022/08/02 00:43:57;;;;;;;;;;;;;;;22.21;53.44;101539.66;1016646;29;643;-78
2022/08/02 00:44:47;;;;;;;;;;;;;;;22.20;53.67;101534.41;1016679;29;560;-78
2022/08/02 00:45:38;;;;;;;;;;;;;;;22.19;53.59;101535.41;1016728;29;628;-78
2022/08/02 00:46:28;;;;;;;;;;;;;;;22.19;53.71;101532.69;1024280;28;1379;-78
2022/08/02 00:47:18;;;;;;;;;;;;;;;22.16;53.45;101536.56;1020726;29;662;-78
2022/08/02 00:48:09;;;;;;;;;;;;;;;22.18;53.51;101539.97;1021016;29;1619;-78
2022/08/02 00:48:59;;;;;;;;;;;;;;;22.17;53.77;101532.84;1020534;29;635;-79
2022/08/02 00:49:50;;;;;;;;;;;;;;;22.18;53.61;101534.53;1020296;29;667;-78
2022/08/02 00:50:40;;;;;;;;;;;;;;;22.20;53.54;101535.25;1020284;29;673;-78
2022/08/02 00:51:30;;;;;;;;;;;;;;;22.21;53.51;101534.25;1020516;29;611;-78
2022/08/02 00:52:21;;;;;;;;;;;;;;;22.22;53.57;101533.19;1020162;29;631;-78
2022/08/02 00:53:11;;;;;;;;;;;;;;;22.20;53.50;101532.53;1020164;29;663;-78
2022/08/02 00:54:02;;;;;;;;;;;;;;;22.20;53.56;101537.97;1020661;29;730;-78
2022/08/02 00:54:52;;;;;;;;;;;;;;;22.19;53.38;101536.25;1020484;29;584;-78
2022/08/02 00:55:43;;;;;;;;;;;;;;;22.19;53.55;101540.84;1020278;29;791;-78
2022/08/02 00:56:33;;;;;;;;;;;;;;;22.19;53.30;101536.25;1020219;29;646;-77
2022/08/02 00:57:23;;;;;;;;;;;;;;;22.20;53.65;101531.69;1020534;29;798;-78
2022/08/02 00:58:14;;;;;;;;;;;;;;;22.19;53.25;101536.25;1021031;29;714;-78
2022/08/02 00:59:04;;;;;;;;;;;;;;;22.19;53.47;101532.69;1020885;29;1191;-78
2022/08/02 00:59:55;;;;;;;;;;;;;;;22.18;53.55;101534.53;1020509;29;619;-77
2022/08/02 01:00:45;;;;;;;;;;;;;;;22.18;53.70;101531.84;1020113;29;655;-78
2022/08/02 01:01:38;;;;;;;;;;;;;;;22.17;53.55;101530.13;1020604;29;622;-78
2022/08/02 01:02:29;;;;;;;;;;;;;;;22.16;53.68;101534.72;1020531;29;688;-78
2022/08/02 01:03:19;;;;;;;;;;;;;;;22.17;53.61;101535.56;1020463;29;748;-78
2022/08/02 01:04:10;;;;;;;;;;;;;;;22.15;53.56;101533.00;1020495;29;687;-77
2022/08/02 01:05:00;;;;;;;;;;;;;;;22.13;53.73;101531.44;1020451;29;641;-77
2022/08/02 01:05:51;;;;;;;;;;;;;;;22.13;53.94;101532.31;1020343;29;1755;-77
2022/08/02 01:06:41;;;;;;;;;;;;;;;22.14;53.62;101525.00;1020439;29;726;-77
2022/08/02 01:07:31;;;;;;;;;;;;;;;22.11;53.56;101526.16;1016285;29;620;-77
2022/08/02 01:08:22;;;;;;;;;;;;;;;22.11;53.94;101522.59;1016731;29;596;-78
2022/08/02 01:09:12;;;;;;;;;;;;;;;22.11;53.72;101522.59;1019861;29;632;-78
2022/08/02 01:10:03;;;;;;;;;;;;;;;22.11;53.83;101528.03;1020584;29;600;-77
2022/08/02 01:10:53;;;;;;;;;;;;;;;22.10;53.64;101526.31;1020416;29;600;-77
2022/08/02 01:11:44;;;;;;;;;;;;;;;22.10;53.93;101526.31;1020539;29;701;-77
2022/08/02 01:12:34;;;;;;;;;;;;;;;22.11;53.62;101528.03;1020291;29;793;-77
2022/08/02 01:13:24;;;;;;;;;;;;;;;22.09;53.88;101528.19;1020550;29;651;-78
2022/08/02 01:14:15;;;;;;;;;;;;;;;22.08;53.70;101533.78;1020352;29;1650;-78
2022/08/02 01:15:05;;;;;;;;;;;;;;;22.09;53.91;101524.63;1020463;29;645;-78
2022/08/02 01:15:56;;;;;;;;;;;;;;;22.08;53.68;101531.91;1020583;29;639;-79
2022/08/02 01:16:46;;;;;;;;;;;;;;;22.07;53.63;101530.19;1020341;29;920;-76
2022/08/02 01:17:36;;;;;;;;;;;;;;;22.08;53.83;101522.91;1020556;29;697;-77
2022/08/02 01:18:28;;;;;;;;;;;;;;;22.05;53.64;101531.38;1020313;29;609;-78
2022/08/02 01:19:18;;;;;;;;;;;;;;;22.05;53.92;101526.78;1020359;29;646;-78
2022/08/02 01:20:08;;;;;;;;;;;;;;;22.07;53.56;101521.22;1020518;29;663;-79
2022/08/02 01:20:59;;;;;;;;;;;;;;;22.08;53.75;101522.91;1020437;29;615;-78
2022/08/02 01:21:49;;;;;;;;;;;;;;;22.08;53.54;101525.63;1020457;29;651;-79
2022/08/02 01:22:40;;;;;;;;;;;;;;;22.09;53.78;101524.63;1023843;29;1122;-78
2022/08/02 01:23:30;;;;;;;;;;;;;;;22.09;53.44;101520.03;1024373;29;646;-78
2022/08/02 01:24:21;;;;;;;;;;;;;;;22.06;53.69;101517.63;1025386;28;627;-78
2022/08/02 01:25:11;;;;;;;;;;;;;;;22.06;53.66;101514.06;1024318;29;600;-77
2022/08/02 01:26:02;;;;;;;;;;;;;;;22.05;53.54;101513.22;1017108;29;635;-76
2022/08/02 01:26:52;;;;;;;;;;;;;;;22.04;53.89;101514.22;1016990;29;624;-78
2022/08/02 01:27:43;;;;;;;;;;;;;;;22.05;53.85;101515.09;1017196;29;635;-79
2022/08/02 01:28:33;;;;;;;;;;;;;;;22.03;53.62;101509.84;1017044;29;687;-77
2022/08/02 01:29:24;;;;;;;;;;;;;;;22.02;53.46;101510.84;1016876;29;1918;-77
2022/08/02 01:30:15;;;;;;;;;;;;;;;22.01;53.70;101506.44;1016994;29;639;-78
2022/08/02 01:31:05;;;;;;;;;;;;;;;22.00;53.75;101510.16;1016880;29;726;-78
2022/08/02 01:31:56;;;;;;;;;;;;;;;22.03;53.94;101508.97;1017092;29;612;-78
2022/08/02 01:32:46;;;;;;;;;;;;;;;22.02;53.90;101507.28;1016993;29;595;-77
2022/08/02 01:33:37;;;;;;;;;;;;;;;22.03;53.61;101511.69;1016567;29;619;-79
2022/08/02 01:34:27;;;;;;;;;;;;;;;22.01;53.62;101511.84;1016994;29;597;-77
2022/08/02 01:35:17;;;;;;;;;;;;;;;22.01;53.57;101505.56;1016924;29;675;-79
2022/08/02 01:36:08;;;;;;;;;;;;;;;21.99;53.89;101500.28;1017014;29;649;-76
2022/08/02 01:36:58;;;;;;;;;;;;;;;21.99;53.76;101502.97;1017012;29;783;-78
2022/08/02 01:37:49;;;;;;;;;;;;;;;21.97;53.93;101504.16;1017043;29;656;-76
2022/08/02 01:38:39;;;;;;;;;;;;;;;21.96;53.80;101497.88;1017012;29;655;-79
2022/08/02 01:39:29;;;;;;;;;;;;;;;21.96;53.70;101499.72;1016898;29;654;-78
2022/08/02 01:40:20;;;;;;;;;;;;;;;21.96;53.53;101502.44;1016928;29;682;-77
2022/08/02 01:41:10;;;;;;;;;;;;;;;21.96;53.57;101494.28;1016997;29;638;-78
2022/08/02 01:42:01;;;;;;;;;;;;;;;21.96;53.87;101500.56;1017108;29;786;-77
2022/08/02 01:42:51;;;;;;;;;;;;;;;21.98;53.77;101503.13;1017026;29;656;-78
2022/08/02 01:43:42;;;;;;;;;;;;;;;21.98;53.46;101505.84;1016990;29;631;-78
2022/08/02 01:44:32;;;;;;;;;;;;;;;22.00;53.32;101498.44;1016516;29;667;-79
2022/08/02 01:45:23;;;;;;;;;;;;;;;21.99;53.34;101502.97;1019478;29;1595;-78
2022/08/02 01:46:13;;;;;;;;;;;;;;;22.00;53.40;101503.88;1024270;29;583;-78
2022/08/02 01:47:04;;;;;;;;;;;;;;;21.97;53.47;101504.16;1024336;29;725;-78
2022/08/02 01:47:54;;;;;;;;;;;;;;;21.97;53.49;101506.84;1024221;29;682;-79
2022/08/02 01:48:44;;;;;;;;;;;;;;;21.95;53.48;101507.00;1024309;29;666;-76
2022/08/02 01:49:35;;;;;;;;;;;;;;;21.94;53.56;101505.31;1024283;29;1899;-76
2022/08/02 01:50:25;;;;;;;;;;;;;;;21.97;53.55;101506.84;1024276;29;782;-76
2022/08/02 01:51:16;;;;;;;;;;;;;;;21.95;53.18;101504.31;1024259;29;720;-76
2022/08/02 01:52:21;;;;;;;;;;;;;;;21.94;53.64;101505.31;1024115;29;679;-76
2022/08/02 01:53:12;;;;;;;;;;;;;;;21.95;53.57;101501.59;1024867;28;666;-75
2022/08/02 01:54:02;;;;;;;;;;;;;;;21.93;53.43;101502.75;1023906;29;1692;-76
2022/08/02 01:54:53;;;;;;;;;;;;;;;21.94;53.61;101505.31;1024433;29;686;-75
2022/08/02 01:55:43;;;;;;;;;;;;;;;21.92;53.57;101501.03;1023991;29;1571;-75
2022/08/02 01:56:34;;;;;;;;;;;;;;;21.92;53.49;101496.47;1024327;29;961;-75
2022/08/02 01:57:24;;;;;;;;;;;;;;;21.90;53.43;101498.47;1024244;29;663;-75
2022/08/02 01:58:15;;;;;;;;;;;;;;;21.92;53.58;101501.03;1024234;29;693;-75
2022/08/02 01:59:05;;;;;;;;;;;;;;;21.94;53.62;101499.88;1016166;29;1324;-75
2022/08/02 01:59:55;;;;;;;;;;;;;;;21.93;53.62;101500.88;1016109;29;632;-75
2022/08/02 02:00:46;;;;;;;;;;;;;;;21.94;53.47;101504.44;1020333;29;611;-75
2022/08/02 02:01:36;;;;;;;;;;;;;;;21.94;53.61;101501.75;1020282;29;615;-75
2022/08/02 02:02:27;;;;;;;;;;;;;;;21.93;53.64;101500.88;1020298;29;714;-75
2022/08/02 02:03:17;;;;;;;;;;;;;;;21.92;53.55;101504.59;1020354;29;563;-76
2022/08/02 02:04:08;;;;;;;;;;;;;;;21.90;53.66;101501.19;1022694;29;1388;-76
2022/08/02 02:04:58;;;;;;;;;;;;;;;21.92;53.50;101499.19;1024223;29;666;-75
2022/08/02 02:05:48;;;;;;;;;;;;;;;21.91;53.52;101496.63;1024188;29;619;-75
2022/08/02 02:06:39;;;;;;;;;;;;;;;21.90;53.63;101492.19;1024225;29;565;-75
2022/08/02 02:07:29;;;;;;;;;;;;;;;21.88;53.67;101488.78;1025314;28;599;-74
2022/08/02 02:08:20;;;;;;;;;;;;;;;21.91;53.25;101493.91;1020537;29;627;-75
2022/08/02 02:09:10;;;;;;;;;;;;;;;21.91;53.44;101493.91;1020603;29;654;-75
2022/08/02 02:10:00;;;;;;;;;;;;;;;21.90;53.36;101486.78;1024352;29;689;-75
2022/08/02 02:10:51;;;;;;;;;;;;;;;21.91;53.51;101493.91;1024066;29;784;-74
2022/08/02 02:11:41;;;;;;;;;;;;;;;21.91;53.49;101488.47;1024254;29;578;-75
2022/08/02 02:12:32;;;;;;;;;;;;;;;21.89;53.67;101488.63;1024281;29;578;-74
2022/08/02 02:13:22;;;;;;;;;;;;;;;21.87;53.67;101490.66;1023695;29;582;-74
2022/08/02 02:14:13;;;;;;;;;;;;;;;21.88;53.67;101494.22;1025362;28;654;-75
2022/08/02 02:15:03;;;;;;;;;;;;;;;21.89;53.63;101490.50;1024065;29;698;-74
2022/08/02 02:15:53;;;;;;;;;;;;;;;21.89;53.60;101487.78;1024211;29;682;-74
2022/08/02 02:16:44;;;;;;;;;;;;;;;21.90;53.58;101489.50;1024296;29;658;-74
2022/08/02 02:17:34;;;;;;;;;;;;;;;21.90;53.44;101486.78;1025293;28;641;-75
2022/08/02 02:18:25;;;;;;;;;;;;;;;21.91;53.58;101491.19;1024294;29;659;-75
2022/08/02 02:19:15;;;;;;;;;;;;;;;21.90;53.41;101486.78;1024134;29;660;-74
2022/08/02 02:20:06;;;;;;;;;;;;;;;21.87;53.71;101485.22;1024305;29;668;-75
2022/08/02 02:20:56;;;;;;;;;;;;;;;21.88;53.40;101488.78;1024142;29;645;-74
2022/08/02 02:21:47;;;;;;;;;;;;;;;21.86;54.05;101488.09;1020483;29;670;-75
2022/08/02 02:22:37;;;;;;;;;;;;;;;21.85;53.60;101489.13;1020303;29;1114;-74
2022/08/02 02:23:27;;;;;;;;;;;;;;;21.85;53.56;101484.56;1023005;29;1575;-74
2022/08/02 02:24:18;;;;;;;;;;;;;;;21.86;53.92;101488.94;1020329;29;656;-75
2022/08/02 02:25:08;;;;;;;;;;;;;;;21.86;53.63;101479.94;1020129;29;624;-75
2022/08/02 02:25:59;;;;;;;;;;;;;;;21.87;53.53;101485.22;1020332;29;722;-75
2022/08/02 02:26:49;;;;;;;;;;;;;;;21.86;53.63;101479.94;1020173;29;775;-75
2022/08/02 02:27:39;;;;;;;;;;;;;;;21.87;53.47;101473.50;1020207;29;783;-75
2022/08/02 02:28:30;;;;;;;;;;;;;;;21.84;53.71;101488.28;1020338;29;652;-75
2022/08/02 02:29:20;;;;;;;;;;;;;;;21.82;53.75;101474.88;1020098;29;1919;-75
2022/08/02 02:30:11;;;;;;;;;;;;;;;21.82;53.88;101480.28;1020326;29;783;-75
2022/08/02 02:31:01;;;;;;;;;;;;;;;21.83;53.88;101470.28;1020231;29;683;-75
2022/08/02 02:31:52;;;;;;;;;;;;;;;21.83;53.91;101475.72;1020333;29;691;-75
2022/08/02 02:32:42;;;;;;;;;;;;;;;21.84;53.66;101474.72;1020176;29;616;-75
2022/08/02 02:33:33;;;;;;;;;;;;;;;21.83;53.82;101473.84;1020809;29;727;-75
2022/08/02 02:34:23;;;;;;;;;;;;;;;21.82;53.81;101471.28;1021616;29;651;-76
2022/08/02 02:35:13;;;;;;;;;;;;;;;21.82;53.65;101472.16;1017367;29;603;-76
2022/08/02 02:36:04;;;;;;;;;;;;;;;21.81;53.83;101469.59;1017371;29;699;-75
2022/08/02 02:36:54;;;;;;;;;;;;;;;21.80;53.97;101465.16;1021052;29;654;-76
2022/08/02 02:37:45;;;;;;;;;;;;;;;21.81;53.98;101465.00;1021077;29;611;-76
2022/08/02 02:38:35;;;;;;;;;;;;;;;21.79;53.87;101464.31;1021000;29;675;-76
2022/08/02 02:39:26;;;;;;;;;;;;;;;21.79;54.11;101469.75;1021077;29;655;-75
2022/08/02 02:40:16;;;;;;;;;;;;;;;21.78;53.97;101473.47;1021004;29;635;-76
2022/08/02 02:41:06;;;;;;;;;;;;;;;21.78;54.01;101467.19;1021071;29;662;-76
2022/08/02 02:41:57;;;;;;;;;;;;;;;21.78;54.23;101470.75;1021116;29;675;-76
2022/08/02 02:42:48;;;;;;;;;;;;;;;21.78;54.27;101467.19;1021073;29;628;-76
2022/08/02 02:43:38;;;;;;;;;;;;;;;21.79;54.16;101475.16;1021070;29;1591;-76
2022/08/02 02:44:28;;;;;;;;;;;;;;;21.79;54.11;101472.47;1017686;29;660;-76
2022/08/02 02:45:19;;;;;;;;;;;;;;;21.77;54.31;101471.75;1017648;29;636;-75
2022/08/02 02:46:10;;;;;;;;;;;;;;;21.76;54.24;101466.50;1017716;29;678;-76
2022/08/02 02:47:00;;;;;;;;;;;;;;;21.77;54.42;101471.75;1022502;28;784;-76
2022/08/02 02:47:50;;;;;;;;;;;;;;;21.77;54.25;101466.34;1021848;28;703;-76
2022/08/02 02:48:41;;;;;;;;;;;;;;;21.76;54.07;101467.34;1017862;28;659;-75
2022/08/02 02:49:31;;;;;;;;;;;;;;;21.77;54.28;101468.19;1017505;29;1955;-76
2022/08/02 02:50:22;;;;;;;;;;;;;;;21.77;54.27;101471.75;1017568;29;668;-74
2022/08/02 02:51:12;;;;;;;;;;;;;;;21.77;54.37;101471.75;1017567;29;634;-74
2022/08/02 02:52:03;;;;;;;;;;;;;;;21.77;54.32;101474.47;1022470;28;670;-75
2022/08/02 02:52:53;;;;;;;;;;;;;;;21.78;54.37;101472.63;1021818;28;666;-75
2022/08/02 02:53:45;;;;;;;;;;;;;;;21.77;54.16;101463.63;1018244;29;631;-75
2022/08/02 02:54:36;;;;;;;;;;;;;;;21.76;54.06;101472.75;1017578;29;895;-75
2022/08/02 02:55:26;;;;;;;;;;;;;;;21.76;54.09;101472.75;1017582;29;619;-75
2022/08/02 02:56:17;;;;;;;;;;;;;;;21.76;54.26;101469.19;1017601;29;945;-75
2022/08/02 02:57:07;;;;;;;;;;;;;;;21.76;54.31;101471.91;1017157;29;643;-75
2022/08/02 02:57:57;;;;;;;;;;;;;;;21.77;54.21;101474.47;1017558;29;619;-75
2022/08/02 02:58:48;;;;;;;;;;;;;;;21.76;54.21;101470.06;1023777;28;1179;-75
2022/08/02 02:59:38;;;;;;;;;;;;;;;21.77;54.00;101476.34;1024636;29;627;-75
2022/08/02 03:01:37;;;;;;;;;;;;;;;21.78;54.07;101475.31;1016123;29;679;-77
2022/08/02 03:02:28;;;;;;;;;;;;;;;21.78;53.97;101473.47;1020196;29;714;-76
2022/08/02 03:03:18;;;;;;;;;;;;;;;21.77;53.96;101471.75;1021164;29;779;-75
2022/08/02 03:04:09;;;;;;;;;;;;;;;21.75;54.05;101468.34;1017748;29;647;-75
2022/08/02 03:05:01;;;;;;;;;;;;;;;21.74;54.41;101469.34;1016222;29;668;-75
2022/08/02 03:05:52;;;;;;;;;;;;;;;21.73;54.26;101473.06;1021029;29;1654;-76
2022/08/02 03:06:42;;;;;;;;;;;;;;;21.75;54.28;101465.63;1020476;29;1424;-75
2022/08/02 03:07:32;;;;;;;;;;;;;;;21.72;54.34;101455.09;1017192;29;659;-76
2022/08/02 03:08:23;;;;;;;;;;;;;;;21.71;54.13;101456.09;1017250;29;675;-76
2022/08/02 03:09:13;;;;;;;;;;;;;;;21.74;54.17;101455.78;1020831;29;651;-75
2022/08/02 03:10:04;;;;;;;;;;;;;;;21.73;54.08;101459.50;1020939;29;634;-75
2022/08/02 03:10:54;;;;;;;;;;;;;;;21.72;54.20;101451.53;1017071;29;632;-75
2022/08/02 03:11:45;;;;;;;;;;;;;;;21.72;54.23;101446.09;1017232;29;729;-75
2022/08/02 03:12:35;;;;;;;;;;;;;;;21.72;54.05;101444.25;1017266;29;670;-75
2022/08/02 03:13:25;;;;;;;;;;;;;;;21.72;54.09;101446.94;1020810;29;614;-75
2022/08/02 03:14:16;;;;;;;;;;;;;;;21.69;54.59;101446.41;1020994;29;644;-75
2022/08/02 03:15:07;;;;;;;;;;;;;;;21.69;54.43;101451.84;1020763;29;594;-75
2022/08/02 03:15:57;;;;;;;;;;;;;;;21.69;54.19;101452.69;1022086;29;631;-75
2022/08/02 03:16:47;;;;;;;;;;;;;;;21.69;54.26;101454.53;1020928;29;639;-75
2022/08/02 03:17:38;;;;;;;;;;;;;;;21.70;54.28;101459.81;1020902;29;655;-75
2022/08/02 03:18:28;;;;;;;;;;;;;;;21.69;54.22;101457.25;1020837;29;615;-75
2022/08/02 03:19:19;;;;;;;;;;;;;;;21.70;54.29;101459.81;1020886;29;664;-75
2022/08/02 03:20:09;;;;;;;;;;;;;;;21.68;54.25;101459.13;1020871;29;702;-75
2022/08/02 03:21:00;;;;;;;;;;;;;;;21.69;54.12;101457.25;1021468;29;682;-76
2022/08/02 03:21:50;;;;;;;;;;;;;;;21.69;54.32;101452.69;1020789;29;678;-77
2022/08/02 03:22:41;;;;;;;;;;;;;;;21.69;53.99;101458.09;1021550;28;1551;-76
2022/08/02 03:23:31;;;;;;;;;;;;;;;21.67;54.05;101449.31;1021397;29;603;-77
2022/08/02 03:24:22;;;;;;;;;;;;;;;21.69;54.16;101452.69;1021485;29;635;-77
2022/08/02 03:25:12;;;;;;;;;;;;;;;21.69;54.22;101446.41;1021472;29;638;-77
2022/08/02 03:26:03;;;;;;;;;;;;;;;21.67;54.19;101452.03;1021078;29;719;-77
2022/08/02 03:26:53;;;;;;;;;;;;;;;21.69;53.99;101454.53;1021456;29;703;-77
2022/08/02 03:27:43;;;;;;;;;;;;;;;21.67;54.26;101448.47;1021375;29;671;-76
2022/08/02 03:28:34;;;;;;;;;;;;;;;21.67;54.44;101449.31;1021546;29;713;-77
2022/08/02 03:29:24;;;;;;;;;;;;;;;21.67;54.37;101443.88;1021369;29;2197;-77
2022/08/02 03:30:15;;;;;;;;;;;;;;;21.66;54.07;101444.03;1021423;29;635;-77
2022/08/02 03:31:05;;;;;;;;;;;;;;;21.64;54.41;101438.75;1021419;29;1035;-76
2022/08/02 03:31:56;;;;;;;;;;;;;;;21.66;54.22;101447.59;1021292;29;655;-76
2022/08/02 03:32:46;;;;;;;;;;;;;;;21.65;54.16;101436.91;1021323;29;694;-76
2022/08/02 03:33:37;;;;;;;;;;;;;;;21.66;54.07;101438.59;1021316;29;743;-77
2022/08/02 03:34:27;;;;;;;;;;;;;;;21.64;54.46;101436.06;1021368;29;678;-76
2022/08/02 03:35:17;;;;;;;;;;;;;;;21.65;54.27;101437.75;1021410;29;633;-77
2022/08/02 03:36:08;;;;;;;;;;;;;;;21.64;54.39;101429.78;1021443;29;666;-77
2022/08/02 03:36:58;;;;;;;;;;;;;;;21.65;54.22;101429.63;1021386;29;599;-77
2022/08/02 03:37:49;;;;;;;;;;;;;;;21.63;54.16;101431.63;1021436;29;673;-77
2022/08/02 03:38:39;;;;;;;;;;;;;;;21.64;54.46;101427.91;1020561;29;718;-77
2022/08/02 03:39:29;;;;;;;;;;;;;;;21.63;54.29;101428.91;1021053;29;650;-77
2022/08/02 03:40:20;;;;;;;;;;;;;;;21.64;54.16;101427.91;1020893;29;600;-76
2022/08/02 03:41:10;;;;;;;;;;;;;;;21.62;54.21;101424.50;1021290;29;668;-76
2022/08/02 03:42:01;;;;;;;;;;;;;;;21.63;54.13;101428.06;1020532;29;714;-78
2022/08/02 03:42:51;;;;;;;;;;;;;;;21.62;54.18;101427.22;1021057;29;627;-76
2022/08/02 03:43:43;;;;;;;;;;;;;;;21.59;54.40;101422.09;1021205;29;683;-76
2022/08/02 03:44:33;;;;;;;;;;;;;;;21.61;54.44;101416.53;1021333;29;639;-78
2022/08/02 03:45:23;;;;;;;;;;;;;;;21.61;54.19;101422.78;1020777;29;619;-78
2022/08/02 03:46:14;;;;;;;;;;;;;;;21.62;54.14;101419.06;1020845;29;658;-79
2022/08/02 03:47:04;;;;;;;;;;;;;;;21.62;54.18;101423.66;1020748;29;674;-79
2022/08/02 03:47:55;;;;;;;;;;;;;;;21.61;54.22;101425.50;1020894;29;741;-79
2022/08/02 03:48:45;;;;;;;;;;;;;;;21.62;54.10;101420.94;1020597;29;704;-79
2022/08/02 03:49:36;;;;;;;;;;;;;;;21.63;53.98;101423.50;1020706;29;1907;-76
2022/08/02 03:50:26;;;;;;;;;;;;;;;21.59;54.24;101422.09;1020871;29;643;-76
2022/08/02 03:51:16;;;;;;;;;;;;;;;21.60;54.23;101426.50;1020767;29;710;-77
2022/08/02 03:52:07;;;;;;;;;;;;;;;21.60;54.17;101436.50;1020780;29;630;-76
2022/08/02 03:52:57;;;;;;;;;;;;;;;21.59;54.23;101430.25;1020329;29;647;-77
2022/08/02 03:53:48;;;;;;;;;;;;;;;21.58;54.25;101427.69;1021042;29;651;-77
2022/08/02 03:54:38;;;;;;;;;;;;;;;21.58;54.11;101425.81;1021337;29;674;-77
2022/08/02 03:55:29;;;;;;;;;;;;;;;21.59;54.16;101430.25;1020732;29;710;-77
2022/08/02 03:56:19;;;;;;;;;;;;;;;21.61;54.06;101427.38;1020851;29;630;-77
2022/08/02 03:57:09;;;;;;;;;;;;;;;21.61;53.97;101428.22;1020695;29;709;-77
2022/08/02 03:58:00;;;;;;;;;;;;;;;21.61;53.84;101428.22;1020612;29;690;-77
2022/08/02 03:58:50;;;;;;;;;;;;;;;21.60;54.09;101434.66;1020857;29;1386;-77
2022/08/02 03:59:41;;;;;;;;;;;;;;;21.58;54.06;101431.25;1020870;29;873;-77
2022/08/02 04:00:32;;;;;;;;;;;;;;;21.59;53.85;101434.81;1020879;29;666;-76
2022/08/02 04:01:22;;;;;;;;;;;;;;;21.58;54.02;101433.09;1020059;29;639;-77
2022/08/02 04:02:13;;;;;;;;;;;;;;;21.58;54.13;101427.69;1020165;29;608;-76
2022/08/02 04:03:03;;;;;;;;;;;;;;;21.57;53.99;101429.53;1020262;29;679;-76
2022/08/02 04:03:54;;;;;;;;;;;;;;;21.57;54.17;101434.97;1020157;29;683;-76
2022/08/02 04:04:44;;;;;;;;;;;;;;;21.56;53.99;101430.53;1020332;29;655;-77
2022/08/02 04:05:34;;;;;;;;;;;;;;;21.58;53.97;101427.69;1017306;29;602;-76
2022/08/02 04:06:25;;;;;;;;;;;;;;;21.56;54.13;101425.13;1017419;29;749;-77
2022/08/02 04:07:15;;;;;;;;;;;;;;;21.57;54.12;101420.53;1017239;29;662;-77
2022/08/02 04:08:06;;;;;;;;;;;;;;;21.57;54.24;101417.84;1017463;29;742;-77
2022/08/02 04:08:56;;;;;;;;;;;;;;;21.57;54.17;101415.13;1017303;29;777;-77
2022/08/02 04:09:47;;;;;;;;;;;;;;;21.57;54.09;101415.13;1017283;29;1890;-77
2022/08/02 04:11:46;;;;;;;;;;;;;;;21.57;53.98;101420.53;1016676;29;634;-76
2022/08/02 04:12:37;;;;;;;;;;;;;;;21.56;54.32;101419.69;1017345;29;619;-77
2022/08/02 04:13:27;;;;;;;;;;;;;;;21.57;54.04;101418.69;1017228;29;622;-76
2022/08/02 04:14:18;;;;;;;;;;;;;;;21.56;54.08;101422.41;1017292;29;659;-76
2022/08/02 04:15:08;;;;;;;;;;;;;;;21.56;54.34;101419.69;1017374;29;722;-77
2022/08/02 04:15:59;;;;;;;;;;;;;;;21.56;54.46;101413.41;1017274;29;710;-76
2022/08/02 04:16:49;;;;;;;;;;;;;;;21.55;54.35;101418.00;1017300;29;620;-77
2022/08/02 04:17:39;;;;;;;;;;;;;;;21.55;54.35;101412.56;1017220;29;667;-78
2022/08/02 04:18:30;;;;;;;;;;;;;;;21.56;54.28;101414.28;1017391;29;966;-77
2022/08/02 04:19:20;;;;;;;;;;;;;;;21.56;54.42;101413.41;1017236;29;746;-77
2022/08/02 04:20:11;;;;;;;;;;;;;;;21.57;54.20;101415.13;1017241;29;662;-76
2022/08/02 04:21:01;;;;;;;;;;;;;;;21.56;54.27;101416.13;1017215;29;667;-77
2022/08/02 04:21:51;;;;;;;;;;;;;;;21.56;54.32;101414.28;1017204;29;612;-77
2022/08/02 04:22:42;;;;;;;;;;;;;;;21.54;54.36;101419.00;1013764;29;1165;-76
2022/08/02 04:23:32;;;;;;;;;;;;;;;21.56;54.39;101419.69;1013411;29;628;-76
2022/08/02 04:24:23;;;;;;;;;;;;;;;21.55;54.21;101418.00;1016373;29;1094;-77
2022/08/02 04:25:13;;;;;;;;;;;;;;;21.55;54.63;101415.28;1015174;29;1070;-77
2022/08/02 04:26:03;;;;;;;;;;;;;;;21.56;54.35;101435.13;1016368;29;1117;-77
2022/08/02 04:26:54;;;;;;;;;;;;;;;21.56;54.38;101424.25;1015277;29;1094;-77
2022/08/02 04:27:44;;;;;;;;;;;;;;;21.56;54.31;101425.13;1016242;29;1284;-77